Time;durP1;ratioP1;P1;durP2;ratioP2;P2;SDS_P1;SDS_P2;PMS_P1;PMS_P2;Temp;Humidity;BMP_temperature;BMP_pressure;BME280_temperature;BME280_humidity;BME280_pressure;Samples;Min_cycle;Max_cycle;Signal;HPM_P1;HPM_P2
2022/09/28 00:00:07;;;;;;;1.98;1.10;;;8.00;99.90;;;;;;5029463;28;20033;-81
2022/09/28 00:02:38;;;;;;;1.83;0.80;;;8.00;99.90;;;;;;5028683;28;20415;-81
2022/09/28 00:05:04;;;;;;;4.60;3.67;;;8.00;99.90;;;;;;5028241;28;20112;-80
2022/09/28 00:07:29;;;;;;;3.92;3.53;;;8.00;99.90;;;;;;5028119;28;20781;-81
2022/09/28 00:09:55;;;;;;;4.60;3.03;;;8.10;99.90;;;;;;5035643;28;20041;-78
2022/09/28 00:12:21;;;;;;;5.22;4.30;;;8.10;99.90;;;;;;5034183;28;20036;-81
2022/09/28 00:14:47;;;;;;;6.20;5.07;;;8.10;99.90;;;;;;5029138;28;20540;-81
2022/09/28 00:17:15;;;;;;;6.60;4.97;;;8.10;99.90;;;;;;5027339;28;20034;-82
2022/09/28 00:19:41;;;;;;;7.05;5.35;;;8.10;99.90;;;;;;5029029;28;20033;-81
2022/09/28 00:22:07;;;;;;;8.45;5.78;;;8.10;99.90;;;;;;5028207;28;20032;-80
2022/09/28 00:24:32;;;;;;;6.82;6.10;;;8.20;99.90;;;;;;5029262;28;20021;-81
2022/09/28 00:27:01;;;;;;;6.70;4.90;;;8.20;99.90;;;;;;5032069;28;20528;-81
2022/09/28 00:29:33;;;;;;;8.05;6.07;;;8.10;99.90;;;;;;5043678;28;20091;-82
2022/09/28 00:32:04;;;;;;;6.80;5.82;;;8.10;99.90;;;;;;5026829;28;20412;-82
2022/09/28 00:34:39;;;;;;;11.05;7.93;;;8.20;99.90;;;;;;5033337;28;20557;-82
2022/09/28 00:37:07;;;;;;;11.57;8.80;;;8.20;99.90;;;;;;5011047;28;20071;-82
2022/09/28 00:39:34;;;;;;;13.63;10.40;;;8.20;99.90;;;;;;5011617;28;20385;-80
2022/09/28 00:42:01;;;;;;;13.13;10.63;;;8.20;99.90;;;;;;5025566;28;20168;-79
2022/09/28 00:44:36;;;;;;;12.50;9.77;;;8.20;99.90;;;;;;5029620;28;20458;-82
2022/09/28 00:47:27;;;;;;;11.75;9.80;;;8.20;99.90;;;;;;5033302;28;20104;-82
2022/09/28 00:50:21;;;;;;;11.35;9.77;;;8.20;99.90;;;;;;5025792;28;20076;-82
2022/09/28 00:52:56;;;;;;;14.38;9.38;;;8.20;99.90;;;;;;5011114;28;20029;-80
2022/09/28 00:55:47;;;;;;;9.77;7.05;;;8.20;99.90;;;;;;5025919;28;20029;-81
2022/09/28 00:58:27;;;;;;;11.88;8.20;;;8.20;99.90;;;;;;5004590;28;20029;-81
2022/09/28 01:00:56;;;;;;;10.98;9.10;;;8.20;99.90;;;;;;5043819;28;20030;-81
2022/09/28 01:03:23;;;;;;;11.88;8.60;;;8.20;99.90;;;;;;5034737;28;20470;-82
2022/09/28 01:05:52;;;;;;;10.27;8.57;;;8.10;99.90;;;;;;5027543;28;20072;-80
2022/09/28 01:08:20;;;;;;;12.25;9.60;;;8.10;99.90;;;;;;5033135;28;20049;-81
2022/09/28 01:10:47;;;;;;;13.27;9.30;;;8.10;99.90;;;;;;5010926;28;20029;-81
2022/09/28 01:13:20;;;;;;;13.23;9.65;;;8.10;99.90;;;;;;5027905;28;20117;-81
2022/09/28 01:16:23;;;;;;;11.70;8.32;;;8.10;99.90;;;;;;5043272;28;20021;-81
2022/09/28 01:18:56;;;;;;;10.60;8.88;;;8.20;99.90;;;;;;5010366;28;20032;-82
2022/09/28 01:21:23;;;;;;;13.32;11.93;;;8.10;99.90;;;;;;5032599;28;20470;-81
2022/09/28 01:24:10;;;;;;;13.85;10.70;;;8.10;99.90;;;;;;5028288;28;20025;-82
2022/09/28 01:26:53;;;;;;;14.75;9.63;;;8.10;99.90;;;;;;5014124;28;20029;-81
2022/09/28 01:29:32;;;;;;;14.15;10.65;;;8.10;99.90;;;;;;5010247;28;20025;-81
2022/09/28 01:32:14;;;;;;;14.98;12.55;;;8.10;99.90;;;;;;5026678;28;20033;-81
2022/09/28 01:34:52;;;;;;;13.25;10.23;;;8.10;99.90;;;;;;5040368;28;20061;-82
2022/09/28 01:37:20;;;;;;;13.88;10.88;;;8.20;99.90;;;;;;5026251;28;20026;-81
2022/09/28 01:39:48;;;;;;;12.43;9.27;;;8.20;99.90;;;;;;5010604;28;20048;-81
2022/09/28 01:42:20;;;;;;;14.60;12.98;;;8.20;99.90;;;;;;5027221;28;20630;-83
2022/09/28 01:44:49;;;;;;;14.43;11.70;;;8.20;99.90;;;;;;5027436;28;20037;-82
2022/09/28 01:47:20;;;;;;;15.70;12.00;;;8.20;99.90;;;;;;5031477;28;20029;-81
2022/09/28 01:49:53;;;;;;;16.35;12.70;;;8.20;99.90;;;;;;5042960;28;20056;-82
2022/09/28 01:52:28;;;;;;;11.15;9.95;;;8.20;99.90;;;;;;5025549;28;20823;-82
2022/09/28 01:55:16;;;;;;;12.63;9.02;;;8.30;99.90;;;;;;5043222;28;20064;-83
2022/09/28 01:57:48;;;;;;;15.57;13.63;;;8.30;99.90;;;;;;5043037;28;20030;-82
2022/09/28 02:00:16;;;;;;;12.13;10.32;;;8.20;99.90;;;;;;5026447;28;20018;-82
2022/09/28 02:02:48;;;;;;;14.75;11.65;;;8.30;99.90;;;;;;5010169;28;20373;-80
2022/09/28 02:05:23;;;;;;;17.75;11.65;;;8.20;99.90;;;;;;5042895;28;20105;-81
2022/09/28 02:08:14;;;;;;;12.32;11.02;;;8.20;99.90;;;;;;5042524;28;20854;-82
2022/09/28 02:10:49;;;;;;;15.52;11.60;;;8.20;99.90;;;;;;5042384;28;20049;-82
2022/09/28 02:13:19;;;;;;;12.43;11.13;;;8.20;99.90;;;;;;5009940;28;20029;-82
2022/09/28 02:16:15;;;;;;;15.15;12.13;;;8.20;99.90;;;;;;5029435;28;20087;-81
2022/09/28 02:18:43;;;;;;;12.65;11.10;;;8.10;99.90;;;;;;5027600;28;20486;-83
2022/09/28 02:21:16;;;;;;;10.27;9.05;;;8.20;99.90;;;;;;5042417;28;20060;-82
2022/09/28 02:23:56;;;;;;;14.07;11.18;;;8.20;99.90;;;;;;5034390;28;20366;-83
2022/09/28 02:26:28;;;;;;;13.68;11.38;;;8.10;99.90;;;;;;5041445;28;20132;-82
2022/09/28 02:28:54;;;;;;;12.70;9.82;;;8.10;99.90;;;;;;5011324;28;20033;-81
2022/09/28 02:31:20;;;;;;;11.45;10.02;;;8.10;99.90;;;;;;5025454;28;20041;-81
2022/09/28 02:33:49;;;;;;;9.73;8.50;;;8.20;99.90;;;;;;5042256;28;20025;-81
2022/09/28 02:36:15;;;;;;;13.75;11.52;;;8.20;99.90;;;;;;5025735;28;20022;-82
2022/09/28 02:38:41;;;;;;;10.88;9.55;;;8.10;99.90;;;;;;5026047;28;20094;-81
2022/09/28 02:41:25;;;;;;;13.40;10.80;;;8.10;99.90;;;;;;5040770;28;20417;-80
2022/09/28 02:44:15;;;;;;;11.70;9.43;;;8.10;99.90;;;;;;5023523;28;20033;-82
2022/09/28 02:47:04;;;;;;;13.65;10.77;;;8.00;99.90;;;;;;5011011;28;20033;-80
2022/09/28 02:50:11;;;;;;;12.40;10.43;;;8.10;99.90;;;;;;5014038;28;20033;-82
2022/09/28 02:53:06;;;;;;;11.30;9.70;;;8.00;99.90;;;;;;5046262;28;20168;-81
2022/09/28 02:55:53;;;;;;;12.23;10.45;;;8.00;99.90;;;;;;5044893;28;20425;-81
2022/09/28 02:58:41;;;;;;;10.25;8.48;;;8.00;99.90;;;;;;5028768;28;20446;-81
2022/09/28 03:01:20;;;;;;;9.38;8.02;;;7.90;99.90;;;;;;5024296;28;20064;-82
2022/09/28 03:04:15;;;;;;;8.40;7.38;;;7.90;99.90;;;;;;5029243;28;20029;-82
2022/09/28 03:06:47;;;;;;;10.85;9.20;;;7.90;99.90;;;;;;5013553;28;20594;-82
2022/09/28 03:09:20;;;;;;;11.65;10.35;;;7.90;99.90;;;;;;5035085;28;20243;-82
2022/09/28 03:11:51;;;;;;;13.15;9.20;;;7.90;99.90;;;;;;5010086;28;20539;-82
2022/09/28 03:14:18;;;;;;;9.68;8.68;;;7.90;99.90;;;;;;5028017;28;20045;-82
2022/09/28 03:16:53;;;;;;;13.05;10.45;;;7.90;99.90;;;;;;5046175;28;20029;-81
2022/09/28 03:19:23;;;;;;;12.65;10.30;;;7.90;99.90;;;;;;5012747;28;20083;-83
2022/09/28 03:21:50;;;;;;;12.88;10.68;;;7.90;99.90;;;;;;5012990;28;20427;-81
2022/09/28 03:24:16;;;;;;;13.52;9.57;;;7.90;99.90;;;;;;5027610;28;20022;-81
2022/09/28 03:26:41;;;;;;;10.25;8.43;;;7.90;99.90;;;;;;5028857;28;20025;-80
2022/09/28 03:29:08;;;;;;;9.30;8.32;;;7.90;99.90;;;;;;5044462;28;20028;-81
2022/09/28 03:31:34;;;;;;;14.10;10.55;;;7.90;99.90;;;;;;5028520;28;20041;-81
2022/09/28 03:34:00;;;;;;;9.93;8.60;;;7.90;99.90;;;;;;5012483;28;20041;-80
2022/09/28 03:36:26;;;;;;;11.07;9.50;;;7.90;99.90;;;;;;5028868;28;20112;-82
2022/09/28 03:38:55;;;;;;;10.13;8.65;;;7.90;99.90;;;;;;5028964;28;20083;-81
2022/09/28 03:41:28;;;;;;;;;;;7.90;99.90;;;;;;5028360;28;20032;-81
2022/09/28 03:43:54;;;;;;;8.80;7.50;;;7.90;99.90;;;;;;5030002;28;20066;-82
2022/09/28 03:46:21;;;;;;;11.45;8.52;;;8.00;99.90;;;;;;5044659;28;20037;-82
2022/09/28 03:48:50;;;;;;;8.75;6.95;;;7.90;99.90;;;;;;5028328;28;20033;-82
2022/09/28 03:51:16;;;;;;;9.70;7.60;;;8.00;99.90;;;;;;5043597;28;20448;-81
2022/09/28 03:53:41;;;;;;;10.80;7.68;;;8.00;99.90;;;;;;5011769;28;20033;-83
2022/09/28 03:56:12;;;;;;;10.40;8.30;;;8.00;99.90;;;;;;5034033;28;20040;-81
2022/09/28 03:58:39;;;;;;;8.27;6.93;;;8.00;99.90;;;;;;5028161;28;20071;-80
2022/09/28 04:01:07;;;;;;;8.38;6.88;;;8.00;99.90;;;;;;5028535;28;20117;-81
2022/09/28 04:03:33;;;;;;;10.20;7.60;;;8.00;99.90;;;;;;5028045;28;20540;-82
2022/09/28 04:05:59;;;;;;;9.68;8.52;;;8.00;99.90;;;;;;5028347;28;20021;-81
2022/09/28 04:08:25;;;;;;;9.57;7.25;;;8.00;99.90;;;;;;5027068;28;20026;-82
2022/09/28 04:10:51;;;;;;;8.10;6.50;;;8.00;99.90;;;;;;5011845;28;20037;-81
2022/09/28 04:13:17;;;;;;;7.28;5.82;;;8.00;99.90;;;;;;5011359;28;20091;-82
2022/09/28 04:15:52;;;;;;;9.60;7.03;;;8.00;99.90;;;;;;5028166;28;20022;-82
2022/09/28 04:18:17;;;;;;;6.00;5.03;;;8.00;99.90;;;;;;5044210;28;20025;-81
2022/09/28 04:21:05;;;;;;;6.10;4.93;;;8.00;99.90;;;;;;5013336;28;20445;-81
2022/09/28 04:23:34;;;;;;;10.88;8.38;;;8.00;99.90;;;;;;5028518;28;20091;-81
2022/09/28 04:26:02;;;;;;;11.38;8.45;;;8.00;99.90;;;;;;5044412;28;20028;-82
2022/09/28 04:31:16;;;;;;;7.38;5.57;;;8.00;99.90;;;;;;5044159;28;20033;-79
2022/09/28 04:33:41;;;;;;;8.63;6.88;;;8.00;99.90;;;;;;5027852;28;20160;-81
2022/09/28 04:36:08;;;;;;;9.95;7.68;;;8.00;99.90;;;;;;5043967;28;20128;-80
2022/09/28 04:38:34;;;;;;;8.23;6.68;;;8.00;99.90;;;;;;5031595;28;20047;-82
2022/09/28 04:41:00;;;;;;;7.53;6.13;;;8.00;99.90;;;;;;5027577;28;20536;-81
2022/09/28 04:43:26;;;;;;;7.43;5.85;;;8.00;99.90;;;;;;5026392;28;20573;-81
2022/09/28 04:46:00;;;;;;;7.35;5.45;;;8.00;99.90;;;;;;5043960;28;20025;-81
2022/09/28 04:48:31;;;;;;;6.38;5.40;;;8.00;99.90;;;;;;5037040;28;20220;-81
2022/09/28 04:51:13;;;;;;;6.93;5.20;;;7.90;99.90;;;;;;5043004;28;20457;-81
2022/09/28 04:53:39;;;;;;;6.13;5.53;;;7.90;99.90;;;;;;5044153;28;20112;-81
2022/09/28 04:56:08;;;;;;;4.72;3.90;;;7.90;99.90;;;;;;5043441;28;20033;-80
2022/09/28 04:58:34;;;;;;;6.68;4.85;;;7.90;99.90;;;;;;5011041;28;20033;-81
2022/09/28 05:01:05;;;;;;;8.18;7.03;;;7.90;99.90;;;;;;5025821;28;20129;-82
2022/09/28 05:03:50;;;;;;;7.95;5.65;;;7.90;99.90;;;;;;5027453;28;20033;-82
2022/09/28 05:06:27;;;;;;;7.93;6.30;;;7.90;99.90;;;;;;5027943;28;20065;-80
2022/09/28 05:08:58;;;;;;;6.95;6.00;;;7.90;99.90;;;;;;5043603;28;20025;-81
2022/09/28 05:11:24;;;;;;;5.32;4.85;;;7.80;99.90;;;;;;5009797;28;20528;-81
2022/09/28 05:13:49;;;;;;;8.02;5.38;;;7.80;99.90;;;;;;5010994;28;20017;-81
2022/09/28 05:16:16;;;;;;;6.13;5.25;;;7.80;99.90;;;;;;5026732;28;20025;-81
2022/09/28 05:19:01;;;;;;;6.55;4.82;;;7.70;99.90;;;;;;5041325;28;20160;-82
2022/09/28 05:21:28;;;;;;;4.13;3.65;;;7.60;99.90;;;;;;5012876;28;20352;-82
2022/09/28 05:23:55;;;;;;;8.80;6.55;;;7.60;99.90;;;;;;5026717;28;20037;-81
2022/09/28 05:26:22;;;;;;;8.23;5.47;;;7.60;99.90;;;;;;5042128;28;20025;-80
2022/09/28 05:28:47;;;;;;;6.07;4.78;;;7.60;99.90;;;;;;5026827;28;20030;-81
2022/09/28 05:31:51;;;;;;;6.00;4.97;;;7.60;99.90;;;;;;4987473;28;20058;-81
2022/09/28 05:34:33;;;;;;;5.72;3.95;;;7.50;99.90;;;;;;4997541;28;20029;-81
2022/09/28 05:36:58;;;;;;;6.75;4.80;;;7.40;99.90;;;;;;4999579;28;20487;-81
2022/09/28 05:39:24;;;;;;;7.60;5.88;;;7.50;99.90;;;;;;4978897;28;20038;-81
2022/09/28 05:41:50;;;;;;;4.90;4.22;;;7.50;99.90;;;;;;4979038;28;20133;-81
2022/09/28 05:44:16;;;;;;;6.35;3.80;;;7.40;99.90;;;;;;4999211;28;20039;-81
2022/09/28 05:46:42;;;;;;;3.00;2.55;;;7.40;99.90;;;;;;4999912;28;20478;-81
2022/09/28 05:49:09;;;;;;;7.60;3.60;;;7.40;99.90;;;;;;4982244;28;20177;-80
2022/09/28 05:51:35;;;;;;;4.55;3.30;;;7.40;99.90;;;;;;4994397;28;20046;-81
2022/09/28 05:54:01;;;;;;;4.05;3.30;;;7.40;99.90;;;;;;4976931;28;20582;-81
2022/09/28 05:56:30;;;;;;;5.65;3.72;;;7.40;99.90;;;;;;4998223;28;20124;-81
2022/09/28 05:58:57;;;;;;;6.70;4.25;;;7.40;99.90;;;;;;4972162;28;20030;-81
2022/09/28 06:01:25;;;;;;;5.13;4.63;;;7.40;99.90;;;;;;4975163;28;20053;-81
2022/09/28 06:03:52;;;;;;;7.20;5.13;;;7.50;99.90;;;;;;5013871;28;20493;-81
2022/09/28 06:06:18;;;;;;;4.93;3.60;;;7.50;99.90;;;;;;5009217;28;20492;-80
2022/09/28 06:08:47;;;;;;;5.35;3.67;;;7.40;99.90;;;;;;5025550;28;20033;-81
2022/09/28 06:11:31;;;;;;;4.22;3.17;;;7.40;99.90;;;;;;5039651;28;20060;-81
2022/09/28 06:13:59;;;;;;;4.63;2.78;;;7.50;99.90;;;;;;5009941;28;20159;-80
2022/09/28 06:16:28;;;;;;;3.08;2.20;;;7.40;99.90;;;;;;5025479;28;20030;-81
2022/09/28 06:18:54;;;;;;;3.88;2.20;;;7.40;99.90;;;;;;5025820;28;20024;-80
2022/09/28 06:21:51;;;;;;;3.60;2.33;;;7.40;99.90;;;;;;4968993;28;20046;-80
2022/09/28 06:24:17;;;;;;;2.58;1.45;;;7.40;99.90;;;;;;4949447;28;20034;-81
2022/09/28 06:26:42;;;;;;;3.35;1.65;;;7.30;99.90;;;;;;4953831;28;20071;-81
2022/09/28 06:29:08;;;;;;;2.72;1.52;;;7.40;99.90;;;;;;4959466;28;20034;-81
2022/09/28 06:31:34;;;;;;;2.88;1.67;;;7.40;99.90;;;;;;4943977;28;20070;-81
2022/09/28 06:34:00;;;;;;;2.17;1.45;;;7.40;99.90;;;;;;4937312;28;20019;-81
2022/09/28 06:36:30;;;;;;;4.13;2.38;;;7.50;99.90;;;;;;4949929;28;20034;-80
2022/09/28 06:38:56;;;;;;;1.98;1.00;;;7.50;99.90;;;;;;4953504;28;20082;-81
2022/09/28 06:41:23;;;;;;;3.25;2.17;;;7.60;99.90;;;;;;4959177;28;20031;-81
2022/09/28 06:43:48;;;;;;;4.95;3.30;;;7.70;99.90;;;;;;4969775;28;20047;-81
2022/09/28 06:46:33;;;;;;;4.00;2.60;;;7.70;99.90;;;;;;4955635;28;20101;-80
2022/09/28 06:49:21;;;;;;;4.90;2.55;;;7.70;99.90;;;;;;4955046;28;20443;-81
2022/09/28 06:52:10;;;;;;;5.25;3.22;;;7.70;99.90;;;;;;4879710;29;20120;-82
2022/09/28 06:55:08;;;;;;;4.60;2.97;;;7.70;99.90;;;;;;4896013;29;20446;-80
2022/09/28 06:57:42;;;;;;;4.88;2.35;;;7.80;99.90;;;;;;4915082;29;20035;-81
2022/09/28 07:00:09;;;;;;;3.88;2.03;;;7.80;99.90;;;;;;4929636;28;20196;-80
2022/09/28 07:02:35;;;;;;;3.30;2.20;;;7.80;99.90;;;;;;4912184;29;20207;-82
2022/09/28 07:05:15;;;;;;;;;;;7.80;99.90;;;;;;4912474;29;20102;-80
2022/09/28 07:07:56;;;;;;;4.10;2.20;;;7.80;99.90;;;;;;4914398;29;19962;-81
2022/09/28 07:10:48;;;;;;;3.20;1.35;;;7.90;99.90;;;;;;4937222;29;20078;-81
2022/09/28 07:13:37;;;;;;;3.08;1.40;;;8.10;99.90;;;;;;4901356;29;20028;-80
2022/09/28 07:16:06;;;;;;;2.25;1.27;;;8.20;99.90;;;;;;4870254;29;20282;-80
2022/09/28 07:18:31;;;;;;;2.70;1.42;;;8.30;99.90;;;;;;4867086;29;20032;-80
2022/09/28 07:20:58;;;;;;;3.72;1.23;;;8.40;99.90;;;;;;4877130;29;20064;-80
2022/09/28 07:23:29;;;;;;;1.95;1.02;;;8.50;99.90;;;;;;4869441;29;20092;-80
2022/09/28 07:26:09;;;;;;;2.05;0.90;;;8.60;99.90;;;;;;4878178;29;20037;-80
2022/09/28 07:29:00;;;;;;;3.97;1.27;;;8.60;99.90;;;;;;4883700;29;20028;-81
2022/09/28 07:31:34;;;;;;;3.47;1.20;;;8.70;99.90;;;;;;4924590;28;20043;-80
2022/09/28 07:34:23;;;;;;;2.42;0.90;;;8.90;99.90;;;;;;4943758;28;20496;-80
2022/09/28 07:36:58;;;;;;;1.80;0.90;;;8.90;99.90;;;;;;4953896;28;20035;-80
2022/09/28 07:39:24;;;;;;;3.55;0.90;;;9.10;99.90;;;;;;4927946;28;20035;-82
2022/09/28 07:41:50;;;;;;;3.28;0.75;;;9.00;99.90;;;;;;4928034;28;20051;-82
2022/09/28 07:44:17;;;;;;;1.45;0.70;;;9.20;99.90;;;;;;4937384;28;20086;-81
2022/09/28 07:46:46;;;;;;;2.03;0.82;;;9.20;99.90;;;;;;4939649;28;20038;-81
2022/09/28 07:49:45;;;;;;;3.80;0.90;;;9.30;99.90;;;;;;4948908;28;20117;-82
2022/09/28 07:52:25;;;;;;;1.77;0.75;;;9.30;99.90;;;;;;5024494;28;20038;-81
2022/09/28 07:55:13;;;;;;;4.38;0.90;;;9.40;99.90;;;;;;5012402;28;20433;-82
2022/09/28 07:58:01;;;;;;;2.25;0.80;;;9.40;99.90;;;;;;5007595;28;20033;-81
2022/09/28 08:00:41;;;;;;;2.22;0.80;;;9.60;99.90;;;;;;5024983;28;20437;-81
2022/09/28 08:03:07;;;;;;;2.28;0.80;;;9.70;99.90;;;;;;4992225;28;20026;-82
2022/09/28 08:05:34;;;;;;;3.47;0.98;;;9.90;99.90;;;;;;5007443;28;20038;-80
2022/09/28 08:08:01;;;;;;;2.03;0.60;;;9.90;99.90;;;;;;5008240;28;20088;-81
2022/09/28 08:10:27;;;;;;;2.65;0.50;;;10.10;99.90;;;;;;5012025;28;20038;-82
2022/09/28 08:13:13;;;;;;;1.60;0.60;;;10.20;99.90;;;;;;5008068;28;20073;-81
2022/09/28 08:15:59;;;;;;;3.08;0.60;;;10.30;99.90;;;;;;5024560;28;20026;-80
2022/09/28 08:18:34;;;;;;;1.08;0.50;;;10.50;99.90;;;;;;5023745;28;20112;-83
2022/09/28 08:23:46;;;;;;;2.47;0.43;;;10.60;99.90;;;;;;5008086;28;20026;-82
2022/09/28 08:26:12;;;;;;;1.95;0.50;;;10.30;99.90;;;;;;4991135;28;20121;-82
2022/09/28 08:28:38;;;;;;;1.23;0.40;;;10.10;99.90;;;;;;5006847;28;20018;-81
2022/09/28 08:31:24;;;;;;;1.40;0.45;;;10.00;99.90;;;;;;5008427;28;20181;-81
2022/09/28 08:34:10;;;;;;;1.05;0.40;;;10.50;99.90;;;;;;5007433;28;20033;-81
2022/09/28 08:36:58;;;;;;;0.93;0.40;;;10.80;99.90;;;;;;5009406;28;20120;-82
2022/09/28 08:39:43;;;;;;;1.27;0.30;;;10.90;99.90;;;;;;5008775;28;20045;-81
2022/09/28 08:42:38;;;;;;;2.63;0.32;;;10.70;99.90;;;;;;5015049;28;20045;-81
2022/09/28 08:45:27;;;;;;;1.15;0.30;;;10.60;99.90;;;;;;5027033;28;20410;-81
2022/09/28 08:52:04;;;;;;;1.75;0.20;;;11.00;99.90;;;;;;4995638;28;20411;-81
2022/09/28 08:55:01;;;;;;;1.13;0.20;;;10.80;99.90;;;;;;4989208;28;20229;-80
2022/09/28 08:57:45;;;;;;;2.70;0.30;;;10.50;99.90;;;;;;4975925;28;20423;-80
2022/09/28 09:00:33;;;;;;;1.52;0.40;;;10.50;99.90;;;;;;5008112;28;20564;-81
2022/09/28 09:03:04;;;;;;;2.85;0.30;;;10.50;99.90;;;;;;4973720;28;20178;-80
2022/09/28 09:05:44;;;;;;;1.13;0.30;;;10.50;99.90;;;;;;4991762;28;20557;-82
2022/09/28 09:08:19;;;;;;;1.08;0.22;;;10.60;99.90;;;;;;4982611;28;20026;-81
2022/09/28 09:11:20;;;;;;;1.58;0.30;;;10.80;99.90;;;;;;4990406;28;20511;-80
2022/09/28 09:14:06;;;;;;;1.45;0.20;;;10.70;99.90;;;;;;4987080;28;20261;-80
2022/09/28 09:17:13;;;;;;;2.85;0.28;;;10.80;99.90;;;;;;4982501;28;20048;-82
2022/09/28 09:20:01;;;;;;;2.63;0.30;;;11.20;99.90;;;;;;5008429;28;20042;-80
2022/09/28 09:23:03;;;;;;;1.83;0.30;;;11.40;99.90;;;;;;5020675;28;20482;-82
2022/09/28 09:25:53;;;;;;;1.05;0.30;;;11.10;99.90;;;;;;5031669;28;20120;-81
2022/09/28 09:28:25;;;;;;;1.70;0.30;;;11.40;99.90;;;;;;5028180;28;20037;-81
2022/09/28 09:31:10;;;;;;;1.77;0.40;;;11.20;99.90;;;;;;5043007;28;20069;-83
2022/09/28 09:33:59;;;;;;;1.65;0.20;;;11.20;99.90;;;;;;5043112;28;20087;-81
2022/09/28 09:37:06;;;;;;;0.68;0.20;;;11.70;99.90;;;;;;5027371;28;20389;-82
2022/09/28 09:39:50;;;;;;;0.82;0.25;;;12.30;99.90;;;;;;5026843;28;20180;-82
2022/09/28 09:43:05;;;;;;;1.60;0.20;;;12.40;99.90;;;;;;4996231;28;20049;-81
2022/09/28 09:46:02;;;;;;;0.57;0.20;;;11.90;99.90;;;;;;5042624;28;20022;-85
2022/09/28 09:48:57;;;;;;;1.10;0.13;;;11.80;99.90;;;;;;5027081;28;20033;-81
2022/09/28 09:51:56;;;;;;;0.43;0.10;;;12.30;99.90;;;;;;5040175;28;20396;-82
2022/09/28 09:54:41;;;;;;;0.40;0.10;;;12.80;99.90;;;;;;5041771;28;20025;-81
2022/09/28 09:57:20;;;;;;;4.00;0.45;;;12.70;99.90;;;;;;5041908;28;20478;-81
2022/09/28 10:00:04;;;;;;;0.57;0.10;;;12.70;99.90;;;;;;5011885;28;20021;-81
2022/09/28 10:02:53;;;;;;;0.98;0.10;;;13.20;99.90;;;;;;5012024;28;20026;-81
2022/09/28 10:05:37;;;;;;;0.50;0.20;;;13.60;99.90;;;;;;5027495;28;20104;-82
2022/09/28 10:08:13;;;;;;;1.38;0.20;;;13.60;99.90;;;;;;5024470;28;20060;-83
2022/09/28 10:10:54;;;;;;;1.20;0.10;;;13.60;99.90;;;;;;5024753;28;20191;-82
2022/09/28 10:13:20;;;;;;;;;;;13.70;99.90;;;;;;5025419;28;20026;-81
2022/09/28 10:15:46;;;;;;;1.45;0.10;;;13.60;99.90;;;;;;5025825;28;19999;-83
2022/09/28 10:18:26;;;;;;;0.38;0.10;;;14.50;99.90;;;;;;5041466;28;20068;-82
2022/09/28 10:21:24;;;;;;;0.85;0.10;;;14.10;99.90;;;;;;4985843;28;20038;-82
2022/09/28 10:23:58;;;;;;;1.30;0.10;;;14.10;99.90;;;;;;4958623;28;20038;-81
2022/09/28 10:26:34;;;;;;;;;;;13.50;99.90;;;;;;4982170;28;20033;-82
2022/09/28 10:29:03;;;;;;;1.10;0.15;;;13.70;99.90;;;;;;4983770;28;20356;-82
2022/09/28 10:31:49;;;;;;;0.32;0.15;;;13.80;99.90;;;;;;4983724;28;20045;-81
2022/09/28 10:34:27;;;;;;;0.50;0.10;;;13.70;99.90;;;;;;4980661;28;20088;-81
2022/09/28 10:37:00;;;;;;;1.13;0.00;;;14.00;99.90;;;;;;4996033;28;20387;-80
2022/09/28 10:39:48;;;;;;;1.63;0.10;;;14.30;99.90;;;;;;4974099;28;20040;-82
2022/09/28 10:42:24;;;;;;;1.33;0.10;;;14.60;99.90;;;;;;4974754;28;20062;-81
2022/09/28 10:44:52;;;;;;;2.92;0.10;;;13.90;99.90;;;;;;4959121;28;20065;-81
2022/09/28 10:47:34;;;;;;;1.15;0.00;;;14.30;99.90;;;;;;4980173;28;20164;-82
2022/09/28 10:50:01;;;;;;;1.65;0.00;;;14.50;99.90;;;;;;4976790;28;20120;-81
2022/09/28 10:52:39;;;;;;;1.55;0.00;;;14.20;99.90;;;;;;4979183;28;20046;-83
2022/09/28 10:55:20;;;;;;;0.40;0.00;;;14.30;99.90;;;;;;4959312;28;20057;-81
2022/09/28 10:57:47;;;;;;;0.50;0.00;;;13.90;99.90;;;;;;4999083;28;20033;-83
2022/09/28 11:00:43;;;;;;;1.00;0.00;;;13.40;99.90;;;;;;5024399;28;20169;-82
2022/09/28 11:03:18;;;;;;;0.57;0.00;;;13.40;99.90;;;;;;5031756;28;20081;-81
2022/09/28 11:06:02;;;;;;;0.35;0.00;;;13.30;99.90;;;;;;5010249;28;20028;-82
2022/09/28 11:08:48;;;;;;;0.88;0.00;;;13.20;99.90;;;;;;5044622;28;20036;-81
2022/09/28 11:11:20;;;;;;;0.20;0.00;;;13.10;99.90;;;;;;5028859;28;20041;-81
2022/09/28 11:14:02;;;;;;;0.52;0.05;;;13.10;99.90;;;;;;5044459;28;20036;-80
2022/09/28 11:16:33;;;;;;;1.23;0.10;;;13.30;99.90;;;;;;5028064;28;20358;-82
2022/09/28 11:19:21;;;;;;;0.30;0.00;;;13.30;99.90;;;;;;5044924;28;20026;-81
2022/09/28 11:21:48;;;;;;;0.90;0.00;;;13.60;99.90;;;;;;5045170;28;20022;-82
2022/09/28 11:24:15;;;;;;;0.60;0.10;;;14.30;99.90;;;;;;5027807;28;20133;-81
2022/09/28 11:26:44;;;;;;;0.20;0.00;;;14.10;99.90;;;;;;5012595;28;20120;-81
2022/09/28 11:29:37;;;;;;;1.15;0.10;;;14.00;99.90;;;;;;5027929;28;20076;-81
2022/09/28 11:32:38;;;;;;;0.32;0.00;;;14.10;99.90;;;;;;5044263;28;20072;-81
2022/09/28 11:35:30;;;;;;;3.85;0.30;;;14.70;99.90;;;;;;5028597;28;20382;-81
2022/09/28 11:38:02;;;;;;;0.47;0.00;;;14.70;99.90;;;;;;5045355;28;20601;-82
2022/09/28 11:41:10;;;;;;;1.05;0.10;;;14.50;99.90;;;;;;5025319;28;20486;-81
2022/09/28 11:44:13;;;;;;;2.40;0.35;;;14.10;99.90;;;;;;5017763;28;20037;-83
2022/09/28 11:47:13;;;;;;;0.93;0.10;;;13.80;99.90;;;;;;5045021;28;20061;-81
2022/09/28 11:50:10;;;;;;;1.15;0.00;;;13.60;99.90;;;;;;5035586;28;20083;-83
2022/09/28 11:52:55;;;;;;;0.90;0.10;;;13.40;99.90;;;;;;5044227;28;20057;-83
2022/09/28 11:55:20;;;;;;;0.45;0.00;;;13.40;99.90;;;;;;5011402;28;20032;-81
2022/09/28 11:57:55;;;;;;;0.10;0.00;;;13.40;99.90;;;;;;5044468;28;20021;-82
2022/09/28 12:00:22;;;;;;;0.47;0.00;;;13.40;99.90;;;;;;5044705;28;20029;-81
2022/09/28 12:03:03;;;;;;;0.35;0.00;;;13.40;99.90;;;;;;5028215;28;20033;-82
2022/09/28 12:05:33;;;;;;;0.32;0.00;;;13.40;99.90;;;;;;5044202;28;20672;-82
2022/09/28 12:08:13;;;;;;;0.68;0.00;;;13.50;99.90;;;;;;5044474;28;20504;-82
2022/09/28 12:11:25;;;;;;;0.00;0.00;;;13.50;99.90;;;;;;5021305;28;20029;-81
2022/09/28 12:14:27;;;;;;;0.40;0.00;;;13.60;99.90;;;;;;5028514;28;20040;-82
2022/09/28 12:17:03;;;;;;;0.45;0.00;;;13.60;99.90;;;;;;5043303;28;20030;-82
2022/09/28 12:19:47;;;;;;;0.00;0.00;;;13.50;99.90;;;;;;5027634;28;20032;-82
2022/09/28 12:22:33;;;;;;;0.10;0.00;;;13.40;99.90;;;;;;5028401;28;20034;-81
2022/09/28 12:25:02;;;;;;;0.40;0.00;;;13.50;99.90;;;;;;5026990;28;20389;-81
2022/09/28 12:27:38;;;;;;;0.17;0.00;;;13.90;99.90;;;;;;5028010;28;20057;-81
2022/09/28 12:30:15;;;;;;;0.32;0.00;;;14.30;99.90;;;;;;5028777;28;20026;-82
2022/09/28 12:32:46;;;;;;;0.30;0.00;;;14.40;99.90;;;;;;5043319;28;20541;-82
2022/09/28 12:35:18;;;;;;;0.28;0.00;;;14.40;99.90;;;;;;5043800;28;20036;-82
2022/09/28 12:38:07;;;;;;;0.52;0.00;;;14.30;99.90;;;;;;5030518;28;20036;-82
2022/09/28 12:40:58;;;;;;;0.25;0.00;;;14.10;99.90;;;;;;5010070;28;20061;-81
2022/09/28 12:43:40;;;;;;;0.55;0.00;;;14.00;99.90;;;;;;5023229;28;20064;-82
2022/09/28 12:46:33;;;;;;;0.10;0.00;;;13.90;99.90;;;;;;5027597;28;20060;-81
2022/09/28 12:49:17;;;;;;;0.20;0.00;;;13.90;99.90;;;;;;5026747;28;20036;-81
2022/09/28 12:51:52;;;;;;;1.05;0.00;;;14.00;99.90;;;;;;5042899;28;20068;-82
2022/09/28 12:54:21;;;;;;;0.43;0.03;;;14.10;99.90;;;;;;5041831;28;20052;-79
2022/09/28 12:57:11;;;;;;;1.00;0.00;;;13.90;99.90;;;;;;5027111;28;20171;-81
2022/09/28 12:59:41;;;;;;;0.77;0.00;;;13.80;99.90;;;;;;5043519;28;20032;-80
2022/09/28 13:02:26;;;;;;;1.00;0.00;;;13.90;99.90;;;;;;5026643;28;20026;-82
2022/09/28 13:05:22;;;;;;;0.13;0.00;;;14.00;99.90;;;;;;5010544;28;20060;-82
2022/09/28 13:08:18;;;;;;;0.52;0.00;;;13.80;99.90;;;;;;5043373;28;20076;-81
2022/09/28 13:10:59;;;;;;;0.40;0.00;;;13.70;99.90;;;;;;5041479;28;20041;-82
2022/09/28 13:13:44;;;;;;;0.20;0.00;;;13.70;99.90;;;;;;5026233;28;20474;-82
2022/09/28 13:16:20;;;;;;;0.25;0.00;;;13.60;99.90;;;;;;5025370;28;20044;-80
2022/09/28 13:19:04;;;;;;;0.25;0.00;;;13.60;99.90;;;;;;5012548;28;20496;-81
2022/09/28 13:22:03;;;;;;;0.38;0.00;;;13.60;99.90;;;;;;5026418;28;20509;-81
2022/09/28 13:24:36;;;;;;;0.13;0.00;;;13.60;99.90;;;;;;5042760;28;20486;-80
2022/09/28 13:27:23;;;;;;;0.17;0.00;;;13.70;99.90;;;;;;5042689;28;20021;-82
2022/09/28 13:29:50;;;;;;;0.10;0.00;;;14.00;99.90;;;;;;5026687;28;20033;-82
2022/09/28 13:32:17;;;;;;;0.20;0.00;;;14.30;99.90;;;;;;5026778;28;20033;-81
2022/09/28 13:34:48;;;;;;;0.00;0.00;;;14.20;99.90;;;;;;5025840;28;20433;-81
2022/09/28 13:37:18;;;;;;;0.30;0.00;;;14.30;99.90;;;;;;5026989;28;20040;-82
2022/09/28 13:39:44;;;;;;;0.15;0.00;;;14.10;99.90;;;;;;5009633;28;20047;-81
2022/09/28 13:42:44;;;;;;;0.08;0.00;;;14.20;99.90;;;;;;5042029;28;20037;-81
2022/09/28 13:45:22;;;;;;;0.10;0.00;;;14.00;99.90;;;;;;5042102;28;20067;-81
2022/09/28 13:47:51;;;;;;;0.30;0.00;;;14.00;99.90;;;;;;5042584;28;20045;-81